Time;durP1;ratioP1;P1;durP2;ratioP2;P2;SDS_P1;SDS_P2;PMS_P1;PMS_P2;Temp;Humidity;BMP_temperature;BMP_pressure;BME280_temperature;BME280_humidity;BME280_pressure;Samples;Min_cycle;Max_cycle;Signal;HPM_P1;HPM_P2
2022/06/29 00:02:17;;;;;;;4.00;1.70;;;18.80;99.90;;;;;;5004710;28;20073;-70
2022/06/29 00:04:42;;;;;;;4.22;1.90;;;18.80;99.90;;;;;;5006713;28;20484;-70
2022/06/29 00:07:08;;;;;;;6.20;2.10;;;18.70;99.90;;;;;;5005015;28;20038;-70
2022/06/29 00:09:34;;;;;;;5.60;2.22;;;18.70;99.90;;;;;;5003365;28;20040;-71
2022/06/29 00:11:59;;;;;;;4.97;2.10;;;18.70;99.90;;;;;;5004064;28;20045;-70
2022/06/29 00:14:25;;;;;;;4.30;2.20;;;18.70;99.90;;;;;;5005013;28;20045;-71
2022/06/29 00:16:53;;;;;;;7.80;2.30;;;18.60;99.90;;;;;;5004725;28;20512;-70
2022/06/29 00:19:22;;;;;;;4.20;1.98;;;18.60;99.90;;;;;;5007306;28;20088;-71
2022/06/29 00:21:48;;;;;;;6.43;2.28;;;18.60;99.90;;;;;;5003836;28;20112;-70
2022/06/29 00:24:13;;;;;;;5.50;2.38;;;18.50;99.90;;;;;;5004492;28;20073;-70
2022/06/29 00:26:39;;;;;;;4.53;2.28;;;18.50;99.90;;;;;;5001155;28;20053;-70
2022/06/29 00:29:05;;;;;;;3.75;1.90;;;18.50;99.90;;;;;;5004152;28;20050;-71
2022/06/29 00:31:31;;;;;;;5.63;2.33;;;18.50;99.90;;;;;;5002375;28;20038;-70
2022/06/29 00:33:56;;;;;;;5.30;2.00;;;18.50;99.90;;;;;;5004159;28;20038;-71
2022/06/29 00:36:22;;;;;;;4.05;2.03;;;18.50;99.90;;;;;;5002603;28;20412;-71
2022/06/29 00:38:47;;;;;;;4.40;2.17;;;18.40;99.90;;;;;;5004103;28;20037;-70
2022/06/29 00:41:13;;;;;;;7.13;2.20;;;18.40;99.90;;;;;;5005816;28;20054;-71
2022/06/29 00:43:43;;;;;;;5.65;2.28;;;18.40;99.90;;;;;;5003515;28;20491;-71
2022/06/29 00:46:08;;;;;;;6.63;2.20;;;18.30;99.90;;;;;;5006863;28;20586;-70
2022/06/29 00:48:35;;;;;;;6.50;2.22;;;18.30;99.90;;;;;;5002634;28;20073;-70
2022/06/29 00:51:03;;;;;;;4.50;2.20;;;18.20;99.90;;;;;;5004600;28;20129;-71
2022/06/29 00:53:34;;;;;;;6.25;2.30;;;18.20;99.90;;;;;;4998427;28;20455;-70
2022/06/29 00:56:03;;;;;;;3.60;2.10;;;18.20;99.90;;;;;;5004966;28;20145;-70
2022/06/29 00:58:30;;;;;;;5.82;2.40;;;18.10;99.90;;;;;;4995234;28;20052;-70
2022/06/29 01:01:03;;;;;;;4.13;2.50;;;18.00;99.90;;;;;;5001438;28;20045;-70
2022/06/29 01:03:28;;;;;;;4.32;2.60;;;18.00;99.90;;;;;;4998829;28;20042;-70
2022/06/29 01:05:58;;;;;;;4.00;2.47;;;18.00;99.90;;;;;;5002045;28;20100;-70
2022/06/29 01:08:23;;;;;;;4.88;2.17;;;18.00;99.90;;;;;;5004505;28;20038;-71
2022/06/29 01:10:49;;;;;;;4.10;2.55;;;17.90;99.90;;;;;;5003641;28;20642;-70
2022/06/29 01:13:14;;;;;;;4.68;2.33;;;17.90;99.90;;;;;;5005515;28;20048;-71
2022/06/29 01:15:40;;;;;;;6.45;2.70;;;17.80;99.90;;;;;;5007012;28;20038;-70
2022/06/29 01:18:06;;;;;;;4.82;2.70;;;17.80;99.90;;;;;;5003797;28;20703;-70
2022/06/29 01:20:32;;;;;;;3.53;2.47;;;17.80;99.90;;;;;;4995493;28;20051;-71
2022/06/29 01:22:58;;;;;;;5.80;2.40;;;17.70;99.90;;;;;;5003401;28;20034;-70
2022/06/29 01:25:24;;;;;;;3.90;2.22;;;17.70;99.90;;;;;;5005737;28;20839;-70
2022/06/29 01:27:50;;;;;;;7.03;2.60;;;17.70;99.90;;;;;;5003522;28;20136;-70
2022/06/29 01:30:15;;;;;;;4.07;2.50;;;17.60;99.90;;;;;;5004593;28;20068;-71
2022/06/29 01:32:42;;;;;;;7.57;2.70;;;17.60;99.90;;;;;;5006075;28;20477;-71
2022/06/29 01:35:10;;;;;;;6.13;2.80;;;17.60;99.90;;;;;;4998435;28;20037;-70
2022/06/29 01:37:36;;;;;;;5.85;3.00;;;17.50;99.90;;;;;;5015218;28;20073;-70
2022/06/29 01:40:06;;;;;;;5.50;2.80;;;17.50;99.90;;;;;;5006205;28;20473;-70
2022/06/29 01:42:32;;;;;;;5.22;2.80;;;17.50;99.90;;;;;;5007512;28;20037;-71
2022/06/29 01:44:57;;;;;;;3.72;2.67;;;17.50;99.90;;;;;;5010216;28;20374;-71
2022/06/29 01:47:23;;;;;;;7.15;2.90;;;17.50;99.90;;;;;;5004392;28;20436;-70
2022/06/29 01:49:49;;;;;;;8.90;3.17;;;17.50;99.90;;;;;;5003519;28;20112;-70
2022/06/29 01:52:15;;;;;;;4.13;2.80;;;17.50;99.90;;;;;;5006702;28;20104;-71
2022/06/29 01:54:40;;;;;;;4.78;3.10;;;17.50;99.90;;;;;;5001137;28;20034;-70
2022/06/29 01:57:06;;;;;;;4.70;2.92;;;17.50;99.90;;;;;;4997422;28;20041;-70
2022/06/29 01:59:32;;;;;;;4.47;3.08;;;17.40;99.90;;;;;;5007552;28;20523;-70
2022/06/29 02:01:57;;;;;;;5.32;2.85;;;17.40;99.90;;;;;;5006358;28;20053;-70
2022/06/29 02:04:23;;;;;;;4.10;2.78;;;17.40;99.90;;;;;;5007307;28;20124;-71
2022/06/29 02:06:48;;;;;;;5.38;3.22;;;17.40;99.90;;;;;;5009105;28;20396;-70
2022/06/29 02:09:14;;;;;;;5.72;3.15;;;17.30;99.90;;;;;;5005695;28;20037;-71
2022/06/29 02:11:40;;;;;;;5.75;3.22;;;17.30;99.90;;;;;;5009695;28;20107;-71
2022/06/29 02:14:06;;;;;;;5.25;3.28;;;17.30;99.90;;;;;;5007051;28;20046;-70
2022/06/29 02:16:32;;;;;;;6.93;3.67;;;17.30;99.90;;;;;;5007283;28;20072;-70
2022/06/29 02:18:58;;;;;;;4.93;3.28;;;17.30;99.90;;;;;;5004133;28;20048;-71
2022/06/29 02:21:23;;;;;;;5.40;3.58;;;17.30;99.90;;;;;;5005926;28;20056;-70
2022/06/29 02:23:49;;;;;;;5.97;3.60;;;17.20;99.90;;;;;;5007908;28;20034;-71
2022/06/29 02:26:15;;;;;;;4.63;3.60;;;17.20;99.90;;;;;;5008772;28;20119;-70
2022/06/29 02:28:41;;;;;;;6.63;3.70;;;17.20;99.90;;;;;;5002911;28;20811;-70
2022/06/29 02:36:35;;;;;;;7.30;3.50;;;17.10;99.90;;;;;;5002619;28;20132;-72
2022/06/29 02:39:01;;;;;;;4.90;4.10;;;17.10;99.90;;;;;;5007190;28;20129;-71
2022/06/29 02:41:27;;;;;;;6.72;3.80;;;17.10;99.90;;;;;;5007012;28;20042;-72
2022/06/29 02:43:53;;;;;;;5.15;3.80;;;17.10;99.90;;;;;;5004740;28;20397;-71
2022/06/29 02:46:19;;;;;;;6.88;3.80;;;17.10;99.90;;;;;;5007217;28;20128;-72
2022/06/29 02:48:44;;;;;;;6.32;3.85;;;17.00;99.90;;;;;;5005196;28;20042;-71
2022/06/29 02:51:10;;;;;;;7.93;4.22;;;17.00;99.90;;;;;;5004168;28;20469;-72
2022/06/29 02:53:36;;;;;;;4.80;3.90;;;17.00;99.90;;;;;;5007911;28;20046;-71
2022/06/29 02:56:01;;;;;;;4.57;3.90;;;17.00;99.90;;;;;;5006696;28;20111;-71
2022/06/29 02:58:27;;;;;;;7.85;4.30;;;17.00;99.90;;;;;;5005781;28;20492;-71
2022/06/29 03:00:52;;;;;;;6.55;4.50;;;16.90;99.90;;;;;;5007650;28;20148;-71
2022/06/29 03:03:18;;;;;;;7.57;4.35;;;17.00;99.90;;;;;;5005059;28;20080;-72
2022/06/29 03:05:44;;;;;;;4.47;4.07;;;16.90;99.90;;;;;;5005486;28;20729;-71
2022/06/29 03:08:09;;;;;;;6.90;4.18;;;17.00;99.90;;;;;;5007693;28;20041;-71
2022/06/29 03:10:35;;;;;;;5.90;4.00;;;16.90;99.90;;;;;;5006303;28;20473;-71
2022/06/29 03:13:01;;;;;;;7.07;4.35;;;16.90;99.90;;;;;;5006896;28;20046;-71
2022/06/29 03:15:30;;;;;;;5.03;3.95;;;16.90;99.90;;;;;;5009066;28;20048;-71
2022/06/29 03:17:55;;;;;;;5.47;4.30;;;16.90;99.90;;;;;;5005290;28;20038;-71
2022/06/29 03:20:22;;;;;;;8.10;4.45;;;16.90;99.90;;;;;;5008933;28;20481;-72
2022/06/29 03:22:48;;;;;;;4.53;4.10;;;16.90;99.90;;;;;;5004729;28;20524;-71
2022/06/29 03:25:15;;;;;;;7.40;4.50;;;16.80;99.90;;;;;;5006619;28;20116;-71
2022/06/29 03:27:41;;;;;;;7.70;4.68;;;16.90;99.90;;;;;;5007923;28;20042;-71
2022/06/29 03:30:08;;;;;;;6.97;4.57;;;16.80;99.90;;;;;;5003757;28;21084;-71
2022/06/29 03:32:33;;;;;;;5.68;4.30;;;16.80;99.90;;;;;;5008045;28;20076;-71
2022/06/29 03:34:59;;;;;;;7.30;4.43;;;16.80;99.90;;;;;;5006130;28;20069;-71
2022/06/29 03:37:25;;;;;;;8.75;4.75;;;16.80;99.90;;;;;;5008096;28;20080;-72
2022/06/29 03:39:50;;;;;;;6.63;4.50;;;16.80;99.90;;;;;;5006591;28;20034;-72
2022/06/29 03:42:16;;;;;;;6.25;4.55;;;16.80;99.90;;;;;;5007250;28;20038;-71
2022/06/29 03:44:41;;;;;;;7.47;5.00;;;16.80;99.90;;;;;;5006549;28;20100;-72
2022/06/29 03:47:10;;;;;;;7.75;4.63;;;16.90;99.90;;;;;;5007731;28;20030;-72
2022/06/29 03:49:35;;;;;;;6.70;4.82;;;16.80;99.90;;;;;;5001912;28;20097;-72
2022/06/29 03:52:02;;;;;;;5.78;4.90;;;16.90;99.90;;;;;;5006782;28;20525;-72
2022/06/29 03:54:28;;;;;;;6.75;4.38;;;16.90;99.90;;;;;;5005481;28;20526;-72
2022/06/29 03:56:54;;;;;;;6.68;5.38;;;16.90;99.90;;;;;;5008540;28;20057;-71
2022/06/29 03:59:20;;;;;;;7.07;5.05;;;16.90;99.90;;;;;;4998662;28;20050;-71
2022/06/29 04:01:46;;;;;;;5.60;5.00;;;16.90;99.90;;;;;;5002337;28;20048;-71
2022/06/29 04:04:15;;;;;;;5.85;5.00;;;16.80;99.90;;;;;;5005379;28;20456;-72
2022/06/29 04:06:40;;;;;;;6.50;4.78;;;16.80;99.90;;;;;;5008157;28;20046;-71
2022/06/29 04:09:06;;;;;;;6.20;4.95;;;16.90;99.90;;;;;;5004622;28;20124;-71
2022/06/29 04:11:51;;;;;;;5.97;5.10;;;16.90;99.90;;;;;;5003862;28;20548;-71
2022/06/29 04:14:25;;;;;;;9.20;5.40;;;16.90;99.90;;;;;;5005435;28;20099;-71
2022/06/29 04:16:52;;;;;;;6.60;5.10;;;16.90;99.90;;;;;;5007033;28;20049;-72
2022/06/29 04:19:18;;;;;;;8.02;5.82;;;16.80;99.90;;;;;;5004180;28;20354;-71
2022/06/29 04:21:44;;;;;;;5.80;5.20;;;16.80;99.90;;;;;;5004003;28;20100;-71
2022/06/29 04:24:10;;;;;;;7.63;6.10;;;16.80;99.90;;;;;;5004620;28;20057;-71
2022/06/29 04:26:36;;;;;;;7.53;5.43;;;16.80;99.90;;;;;;5006674;28;20060;-71
2022/06/29 04:29:02;;;;;;;6.97;5.47;;;16.80;99.90;;;;;;5005382;28;20536;-71
2022/06/29 04:31:28;;;;;;;6.40;5.03;;;16.80;99.90;;;;;;4998934;28;20038;-71
2022/06/29 04:33:54;;;;;;;6.82;5.38;;;16.80;99.90;;;;;;5005141;28;20046;-71
2022/06/29 04:36:20;;;;;;;8.20;5.35;;;16.80;99.90;;;;;;4993577;28;20100;-71
2022/06/29 04:38:45;;;;;;;6.65;5.40;;;16.80;99.90;;;;;;5002866;28;20038;-71
2022/06/29 04:41:12;;;;;;;7.93;5.68;;;16.80;99.90;;;;;;5001679;28;20044;-72
2022/06/29 04:43:37;;;;;;;6.68;5.57;;;16.80;99.90;;;;;;5006796;28;20073;-71
2022/06/29 04:46:22;;;;;;;6.85;5.85;;;16.70;99.90;;;;;;5006137;28;20093;-71
2022/06/29 04:48:59;;;;;;;7.88;5.90;;;16.80;99.90;;;;;;5006003;28;20049;-71
2022/06/29 04:51:27;;;;;;;12.95;5.80;;;16.80;99.90;;;;;;5001364;28;20042;-71
2022/06/29 04:53:54;;;;;;;11.02;6.32;;;16.80;99.90;;;;;;5007427;28;20058;-71
2022/06/29 04:56:22;;;;;;;8.10;6.40;;;16.80;99.90;;;;;;5004586;28;20480;-72
2022/06/29 04:58:49;;;;;;;7.03;6.32;;;16.80;99.90;;;;;;5004182;28;20344;-71
2022/06/29 05:01:14;;;;;;;6.27;5.67;;;16.90;99.90;;;;;;4999967;28;20248;-71
2022/06/29 05:03:41;;;;;;;9.52;6.35;;;16.90;99.90;;;;;;5005321;28;20058;-71
2022/06/29 05:06:07;;;;;;;8.88;6.13;;;16.90;99.90;;;;;;5008152;28;20053;-71
2022/06/29 05:08:32;;;;;;;7.10;6.40;;;17.00;99.90;;;;;;5005876;28;20391;-71
2022/06/29 05:10:58;;;;;;;7.60;6.38;;;17.00;99.90;;;;;;5004799;28;20038;-71
2022/06/29 05:13:24;;;;;;;10.18;6.85;;;17.10;99.90;;;;;;5005456;28;20047;-72
2022/06/29 05:15:49;;;;;;;9.02;6.30;;;17.20;99.90;;;;;;4991576;28;20057;-71
2022/06/29 05:18:15;;;;;;;7.18;6.25;;;17.30;99.90;;;;;;5005510;28;20046;-72
2022/06/29 05:20:42;;;;;;;9.23;6.38;;;17.40;99.90;;;;;;5007784;28;20819;-71
2022/06/29 05:23:08;;;;;;;;;;;17.50;99.90;;;;;;5008912;28;20592;-71
2022/06/29 05:25:34;;;;;;;9.40;6.30;;;17.50;99.90;;;;;;5007409;28;20844;-71
2022/06/29 05:28:00;;;;;;;10.90;6.53;;;17.60;99.90;;;;;;5006624;28;20052;-72
2022/06/29 05:30:26;;;;;;;7.45;6.30;;;17.70;99.90;;;;;;5010204;28;20117;-71
2022/06/29 05:32:51;;;;;;;7.88;6.40;;;17.70;99.90;;;;;;5005767;28;20592;-72
2022/06/29 05:35:17;;;;;;;7.78;6.90;;;17.80;99.90;;;;;;5008719;28;20049;-72
2022/06/29 05:37:43;;;;;;;9.70;6.65;;;17.90;99.90;;;;;;5004293;28;20057;-72
2022/06/29 05:40:09;;;;;;;7.95;6.70;;;17.90;99.90;;;;;;5007883;28;20129;-72
2022/06/29 05:42:34;;;;;;;7.40;6.55;;;18.00;99.90;;;;;;5008275;28;20400;-72
2022/06/29 05:45:01;;;;;;;7.63;6.68;;;18.10;99.90;;;;;;5008162;28;20251;-72
2022/06/29 05:47:26;;;;;;;8.05;6.47;;;18.20;99.90;;;;;;5004775;28;20042;-73
2022/06/29 05:49:52;;;;;;;8.90;6.43;;;18.30;99.90;;;;;;5009184;28;20247;-71
2022/06/29 05:52:18;;;;;;;8.90;6.32;;;18.40;99.90;;;;;;5006240;28;20060;-71
2022/06/29 05:54:44;;;;;;;9.20;6.20;;;18.50;99.90;;;;;;4999727;28;20045;-71
2022/06/29 05:57:10;;;;;;;7.85;6.60;;;18.50;99.90;;;;;;5006826;28;20392;-70
2022/06/29 05:59:35;;;;;;;9.60;5.85;;;18.60;99.90;;;;;;5009305;28;20053;-69
2022/06/29 06:02:01;;;;;;;9.50;6.50;;;18.70;99.90;;;;;;5007676;28;20125;-70
2022/06/29 06:04:27;;;;;;;9.88;6.55;;;18.70;99.90;;;;;;4994987;28;20073;-70
2022/06/29 06:06:52;;;;;;;8.10;6.68;;;18.80;99.90;;;;;;5005872;28;20140;-70
2022/06/29 06:09:22;;;;;;;7.57;6.45;;;18.90;99.90;;;;;;5002600;28;20551;-70
2022/06/29 06:11:47;;;;;;;6.97;6.13;;;18.90;99.90;;;;;;5001060;28;20437;-70
2022/06/29 06:14:13;;;;;;;8.13;5.43;;;19.00;99.90;;;;;;4996881;28;20054;-70
2022/06/29 06:16:39;;;;;;;6.40;5.30;;;19.20;99.90;;;;;;4999719;28;20038;-70
2022/06/29 06:19:04;;;;;;;8.60;5.50;;;19.20;99.90;;;;;;5001699;28;20045;-70
2022/06/29 06:21:30;;;;;;;11.57;5.40;;;19.30;99.90;;;;;;5005834;28;20048;-70
2022/06/29 06:23:56;;;;;;;5.68;5.00;;;19.40;99.90;;;;;;5003722;28;20306;-71
2022/06/29 06:26:21;;;;;;;8.02;5.22;;;19.50;99.90;;;;;;5002555;28;20562;-71
2022/06/29 06:28:47;;;;;;;6.68;5.47;;;19.60;99.90;;;;;;5006556;28;20042;-71
2022/06/29 06:31:12;;;;;;;11.77;4.93;;;19.60;99.90;;;;;;5009197;28;20042;-70
2022/06/29 06:33:38;;;;;;;7.80;4.57;;;19.70;99.90;;;;;;5005511;28;20487;-71
2022/06/29 06:36:04;;;;;;;7.47;4.45;;;19.80;99.90;;;;;;5007029;28;20153;-70
2022/06/29 06:38:29;;;;;;;4.38;3.95;;;19.90;99.90;;;;;;4999390;28;20132;-70
2022/06/29 06:43:40;;;;;;;7.78;4.28;;;20.10;99.90;;;;;;5006474;28;20109;-70
2022/06/29 06:46:05;;;;;;;5.60;4.35;;;20.20;99.90;;;;;;5006013;28;20069;-71
2022/06/29 06:48:32;;;;;;;8.07;3.95;;;20.30;99.90;;;;;;5002544;28;20172;-70
2022/06/29 06:50:57;;;;;;;6.20;3.77;;;20.40;99.90;;;;;;5008531;28;20488;-71
2022/06/29 06:53:23;;;;;;;7.32;4.05;;;20.50;99.90;;;;;;5005500;28;20056;-71
2022/06/29 06:55:49;;;;;;;5.93;3.50;;;20.50;99.90;;;;;;5008392;28;20073;-71
2022/06/29 06:58:14;;;;;;;3.75;3.30;;;20.60;99.90;;;;;;5006222;28;20054;-71
2022/06/29 07:00:41;;;;;;;5.38;3.40;;;20.60;99.90;;;;;;5006039;28;20046;-70
2022/06/29 07:03:07;;;;;;;8.18;3.10;;;20.80;99.90;;;;;;4998778;28;20089;-71
2022/06/29 07:05:32;;;;;;;5.35;2.90;;;20.90;99.90;;;;;;5004821;28;20042;-71
2022/06/29 07:07:58;;;;;;;3.78;2.20;;;21.00;99.90;;;;;;5001809;28;20042;-72
2022/06/29 07:10:24;;;;;;;4.03;2.60;;;21.10;99.90;;;;;;4999420;28;20038;-72
2022/06/29 07:12:49;;;;;;;4.00;2.60;;;21.20;99.90;;;;;;4999345;28;20061;-71
2022/06/29 07:15:15;;;;;;;4.25;2.58;;;21.20;99.90;;;;;;5004084;28;20433;-72
2022/06/29 07:17:41;;;;;;;3.33;2.25;;;21.30;99.90;;;;;;5001235;28;20097;-71
2022/06/29 07:20:08;;;;;;;3.53;2.00;;;21.30;99.90;;;;;;5006873;28;20038;-68
2022/06/29 07:22:34;;;;;;;3.58;2.33;;;21.40;99.90;;;;;;5006172;28;22098;-69
2022/06/29 07:24:59;;;;;;;3.72;2.30;;;21.60;99.90;;;;;;5001416;28;20132;-69
2022/06/29 07:27:25;;;;;;;4.03;2.05;;;21.70;99.90;;;;;;5002449;28;20095;-72
2022/06/29 07:29:52;;;;;;;6.30;2.67;;;21.80;99.90;;;;;;5008938;28;20045;-70
2022/06/29 07:32:18;;;;;;;4.45;1.95;;;21.90;99.90;;;;;;5002395;28;20556;-70
2022/06/29 07:34:45;;;;;;;4.45;2.05;;;22.00;99.90;;;;;;5005748;28;20049;-70
2022/06/29 07:37:10;;;;;;;4.57;2.00;;;22.10;99.90;;;;;;5005622;28;20133;-70
2022/06/29 07:39:36;;;;;;;6.03;1.80;;;22.30;99.90;;;;;;5007205;28;20610;-70
2022/06/29 07:42:03;;;;;;;5.20;2.20;;;22.40;99.90;;;;;;5008552;28;20477;-70
2022/06/29 07:44:29;;;;;;;5.72;2.30;;;22.40;99.90;;;;;;5004477;28;20037;-71
2022/06/29 07:46:55;;;;;;;4.03;1.90;;;22.60;99.90;;;;;;5006952;28;20481;-70
2022/06/29 07:49:20;;;;;;;4.95;1.95;;;22.70;99.90;;;;;;5005889;28;20045;-70
2022/06/29 07:51:47;;;;;;;4.60;2.10;;;22.70;99.90;;;;;;5002512;28;20042;-70
2022/06/29 07:54:13;;;;;;;5.15;2.08;;;22.80;99.90;;;;;;5005121;28;20050;-69
2022/06/29 07:56:39;;;;;;;3.30;1.90;;;22.90;99.90;;;;;;5007908;28;20405;-71
2022/06/29 07:59:04;;;;;;;4.70;2.00;;;23.00;99.10;;;;;;5007324;28;20573;-71
2022/06/29 08:01:30;;;;;;;3.25;1.80;;;23.00;97.80;;;;;;5006484;28;20033;-70
2022/06/29 08:03:56;;;;;;;4.03;1.80;;;23.00;97.30;;;;;;5006614;28;20046;-70
2022/06/29 08:06:24;;;;;;;3.33;1.95;;;23.00;96.90;;;;;;5003393;28;20042;-70
2022/06/29 08:08:50;;;;;;;4.28;2.00;;;23.10;98.00;;;;;;5007347;28;20049;-70
2022/06/29 08:11:15;;;;;;;4.88;1.85;;;23.10;99.10;;;;;;5004054;28;20050;-71
2022/06/29 08:13:41;;;;;;;3.92;1.92;;;23.30;98.50;;;;;;5004502;28;20405;-71
2022/06/29 08:16:07;;;;;;;4.07;2.00;;;23.40;98.20;;;;;;5004680;28;20630;-71
2022/06/29 08:18:33;;;;;;;3.10;1.92;;;23.50;96.60;;;;;;5008872;28;20073;-71
2022/06/29 08:21:00;;;;;;;3.95;1.80;;;23.50;96.70;;;;;;5008241;28;20103;-71
2022/06/29 08:23:26;;;;;;;3.47;1.95;;;23.40;97.00;;;;;;5004820;28;20451;-72
2022/06/29 08:25:51;;;;;;;3.42;2.00;;;23.40;96.50;;;;;;5007805;28;20037;-69
2022/06/29 08:28:17;;;;;;;4.88;1.90;;;23.30;96.60;;;;;;5005232;28;20042;-69
2022/06/29 08:30:43;;;;;;;2.80;1.83;;;23.30;97.80;;;;;;5008901;28;20049;-69
2022/06/29 08:33:08;;;;;;;4.22;1.90;;;23.30;99.50;;;;;;5007428;28;20120;-70
2022/06/29 08:35:34;;;;;;;3.45;2.08;;;23.30;99.90;;;;;;5007036;28;20046;-70
2022/06/29 08:38:00;;;;;;;6.60;2.15;;;23.50;99.70;;;;;;5009315;28;20042;-71
2022/06/29 08:40:28;;;;;;;4.95;2.03;;;23.60;99.80;;;;;;5008505;28;20125;-70
2022/06/29 08:42:56;;;;;;;2.35;2.10;;;23.80;99.90;;;;;;5003793;28;20115;-72
2022/06/29 08:45:21;;;;;;;4.50;2.15;;;24.00;99.20;;;;;;5003914;28;20060;-71
2022/06/29 08:47:47;;;;;;;7.28;2.15;;;24.10;99.00;;;;;;5012845;28;20409;-71
2022/06/29 08:50:13;;;;;;;4.07;2.10;;;24.20;98.70;;;;;;5010193;28;20056;-72
2022/06/29 08:52:40;;;;;;;3.38;2.13;;;24.30;97.40;;;;;;5011951;28;20077;-72
2022/06/29 08:55:08;;;;;;;3.85;2.20;;;24.40;96.80;;;;;;5009250;28;20042;-70
2022/06/29 08:57:38;;;;;;;2.88;2.20;;;24.40;96.40;;;;;;5009191;28;20107;-71
2022/06/29 09:00:05;;;;;;;4.25;2.47;;;24.50;95.50;;;;;;5006281;28;20563;-70
2022/06/29 09:02:31;;;;;;;4.45;2.30;;;24.40;95.60;;;;;;5007809;28;20107;-70
2022/06/29 09:04:57;;;;;;;3.42;2.38;;;24.50;96.80;;;;;;5012705;28;20050;-70
2022/06/29 09:07:27;;;;;;;2.83;2.03;;;24.60;96.50;;;;;;5009558;28;20492;-70
2022/06/29 09:10:07;;;;;;;5.60;2.45;;;24.70;96.60;;;;;;5012481;28;20072;-70
2022/06/29 09:12:33;;;;;;;2.85;2.20;;;24.90;94.10;;;;;;5012197;28;20127;-70
2022/06/29 09:15:00;;;;;;;5.68;2.53;;;25.00;95.00;;;;;;5012730;28;20045;-70
2022/06/29 09:17:29;;;;;;;4.82;2.70;;;25.10;95.20;;;;;;5010143;28;20042;-70
2022/06/29 09:19:56;;;;;;;4.13;2.50;;;25.20;94.20;;;;;;5011116;28;20674;-70
2022/06/29 09:22:22;;;;;;;5.40;2.63;;;25.30;94.30;;;;;;5011410;28;20054;-70
2022/06/29 09:24:49;;;;;;;2.67;2.40;;;25.30;90.90;;;;;;5011125;28;20602;-70
2022/06/29 09:27:15;;;;;;;;;;;25.30;89.60;;;;;;5010417;28;20053;-70
2022/06/29 09:29:42;;;;;;;4.00;2.67;;;25.30;94.30;;;;;;5012549;28;19921;-70
2022/06/29 09:32:11;;;;;;;;;;;25.30;95.70;;;;;;5010960;28;20067;-70
2022/06/29 09:34:41;;;;;;;5.22;3.03;;;25.40;98.10;;;;;;5010816;28;20008;-70
2022/06/29 09:37:17;;;;;;;5.63;3.15;;;25.50;92.70;;;;;;5008875;28;20052;-70
2022/06/29 09:39:51;;;;;;;4.35;2.72;;;25.60;92.30;;;;;;5011279;28;20046;-71
2022/06/29 09:42:22;;;;;;;3.53;2.85;;;25.70;92.80;;;;;;5008779;28;20382;-72
2022/06/29 09:44:48;;;;;;;8.50;3.00;;;25.80;91.80;;;;;;5005986;28;20100;-74
2022/06/29 09:47:21;;;;;;;5.75;3.10;;;25.70;93.10;;;;;;5011347;28;20092;-72
2022/06/29 09:49:51;;;;;;;4.15;3.05;;;25.60;92.70;;;;;;5012250;28;20107;-71
2022/06/29 09:52:19;;;;;;;4.85;3.10;;;25.50;92.50;;;;;;5006743;28;20054;-73
2022/06/29 09:54:59;;;;;;;3.70;3.15;;;25.50;92.50;;;;;;5009245;28;20057;-73
2022/06/29 09:57:29;;;;;;;4.38;3.20;;;25.50;93.50;;;;;;5008795;28;20408;-74
2022/06/29 10:02:49;;;;;;;5.13;3.05;;;25.50;95.80;;;;;;5008681;28;20073;-73
2022/06/29 10:05:25;;;;;;;5.30;3.00;;;25.50;94.60;;;;;;4997723;28;20053;-74
2022/06/29 10:07:52;;;;;;;4.45;3.20;;;25.50;93.20;;;;;;5011357;28;20042;-73
2022/06/29 10:10:20;;;;;;;7.07;3.15;;;25.60;92.20;;;;;;5011262;28;20527;-72
2022/06/29 10:16:11;;;;;;;3.97;3.08;;;25.80;91.40;;;;;;5010849;28;20058;-73
2022/06/29 10:19:09;;;;;;;4.15;3.22;;;25.80;91.10;;;;;;5007924;28;20058;-75
2022/06/29 10:21:34;;;;;;;4.22;3.05;;;25.90;90.60;;;;;;4999377;28;20475;-74
2022/06/29 10:24:01;;;;;;;4.28;3.03;;;25.90;92.00;;;;;;5006254;28;20049;-77
2022/06/29 10:26:27;;;;;;;3.40;2.88;;;26.00;92.40;;;;;;5006619;28;20029;-73
2022/06/29 10:28:56;;;;;;;5.82;3.20;;;26.00;90.50;;;;;;5008641;28;20054;-74
2022/06/29 10:31:50;;;;;;;5.75;3.30;;;26.10;93.70;;;;;;5008383;28;20488;-74
2022/06/29 10:34:31;;;;;;;5.35;3.30;;;26.30;89.00;;;;;;4995965;28;20519;-74
2022/06/29 10:37:06;;;;;;;3.80;3.10;;;26.50;92.00;;;;;;5008830;28;20053;-73
2022/06/29 10:39:48;;;;;;;4.15;2.90;;;26.60;89.70;;;;;;5008672;28;20440;-73
2022/06/29 10:45:24;;;;;;;4.93;3.28;;;26.80;76.20;;;;;;5009877;28;20050;-72
2022/06/29 10:47:53;;;;;;;11.85;3.35;;;26.80;80.30;;;;;;5006566;28;20065;-72
2022/06/29 10:50:24;;;;;;;5.78;3.60;;;26.70;80.10;;;;;;5008495;28;20046;-73
2022/06/29 10:53:02;;;;;;;5.38;3.20;;;26.70;79.30;;;;;;5008670;28;20065;-74
2022/06/29 10:55:29;;;;;;;3.33;3.05;;;26.70;77.90;;;;;;5020238;28;20440;-73
2022/06/29 10:57:55;;;;;;;3.97;3.20;;;26.70;77.40;;;;;;5007196;28;20077;-73
2022/06/29 11:00:26;;;;;;;5.78;3.65;;;26.60;78.50;;;;;;5006109;28;20152;-71
2022/06/29 11:02:52;;;;;;;3.83;3.28;;;26.70;80.00;;;;;;5003388;28;20058;-73
2022/06/29 11:05:18;;;;;;;5.50;3.40;;;26.70;82.90;;;;;;5004732;28;20050;-73
2022/06/29 11:13:29;;;;;;;6.82;3.85;;;26.60;82.70;;;;;;4997945;28;20360;-74
2022/06/29 11:15:57;;;;;;;6.38;4.35;;;26.50;82.00;;;;;;5011957;28;20042;-73
2022/06/29 11:18:31;;;;;;;5.68;3.63;;;26.50;80.20;;;;;;5008203;28;20077;-72
2022/06/29 11:21:04;;;;;;;4.70;3.85;;;26.50;86.50;;;;;;5009032;28;20056;-72
2022/06/29 11:23:34;;;;;;;6.05;3.95;;;26.40;90.90;;;;;;5000838;28;20444;-73
2022/06/29 11:26:01;;;;;;;7.85;3.80;;;26.40;90.20;;;;;;5006188;28;20058;-71
2022/06/29 11:28:31;;;;;;;4.07;3.67;;;26.40;82.60;;;;;;4997051;28;20516;-72
2022/06/29 11:31:12;;;;;;;5.15;3.35;;;26.50;88.50;;;;;;5097361;27;20885;-74
2022/06/29 11:33:41;;;;;;;4.47;3.70;;;26.50;88.60;;;;;;5085003;28;20716;-74
2022/06/29 11:36:15;;;;;;;7.35;3.20;;;26.60;81.10;;;;;;5087176;28;20163;-74
2022/06/29 11:38:43;;;;;;;6.75;3.63;;;26.60;80.60;;;;;;5078245;28;20056;-74
2022/06/29 11:41:13;;;;;;;5.50;3.85;;;26.70;76.10;;;;;;5088633;28;20048;-72
2022/06/29 11:43:40;;;;;;;5.53;3.60;;;26.70;84.90;;;;;;5085030;28;20133;-72
2022/06/29 11:46:17;;;;;;;8.13;3.53;;;26.80;90.60;;;;;;5094703;28;20059;-72
2022/06/29 11:49:33;;;;;;;;;;;26.90;90.20;;;;;;5105471;28;20089;-71
2022/06/29 11:51:33;;;;;;;4.93;3.75;;;26.90;88.30;;;;;;5085763;28;19939;-71
2022/06/29 11:54:06;;;;;;;6.57;3.85;;;26.80;81.00;;;;;;5106047;28;20051;-72
2022/06/29 11:56:32;;;;;;;7.13;3.60;;;26.80;82.80;;;;;;5094260;28;20536;-71
2022/06/29 11:59:04;;;;;;;6.72;3.88;;;26.80;81.30;;;;;;5091325;28;20048;-71
2022/06/29 12:01:29;;;;;;;5.25;3.88;;;26.80;78.80;;;;;;5079360;28;20052;-81
2022/06/29 12:03:55;;;;;;;7.22;4.10;;;26.80;83.80;;;;;;5077120;28;20186;-75
2022/06/29 12:06:24;;;;;;;4.73;3.67;;;26.90;82.20;;;;;;5080436;28;20059;-75
2022/06/29 12:08:51;;;;;;;6.80;3.83;;;27.00;85.50;;;;;;5083009;28;20052;-74
2022/06/29 12:11:17;;;;;;;5.65;3.47;;;27.00;86.10;;;;;;5081626;28;20725;-75
2022/06/29 12:13:46;;;;;;;6.17;3.50;;;27.00;84.40;;;;;;5080546;28;20036;-73
2022/06/29 12:16:12;;;;;;;6.68;3.50;;;27.00;77.00;;;;;;5082339;28;20044;-73
2022/06/29 12:18:38;;;;;;;6.17;3.53;;;27.00;72.90;;;;;;5080340;28;20063;-73
2022/06/29 12:21:04;;;;;;;6.03;3.67;;;27.00;74.80;;;;;;5080546;28;20310;-73
2022/06/29 12:23:31;;;;;;;5.67;4.10;;;27.00;78.10;;;;;;5079883;28;20040;-72
2022/06/29 12:25:57;;;;;;;4.85;3.53;;;27.10;82.50;;;;;;5083030;28;20048;-73
2022/06/29 12:28:23;;;;;;;4.30;3.60;;;27.10;86.80;;;;;;5079719;28;20051;-73
2022/06/29 12:30:51;;;;;;;5.27;3.40;;;27.10;89.00;;;;;;5076701;28;20314;-73
2022/06/29 12:33:17;;;;;;;5.45;3.58;;;27.10;86.00;;;;;;5079370;28;20052;-73
2022/06/29 12:35:43;;;;;;;6.80;3.37;;;27.10;82.40;;;;;;5081721;28;20090;-73
2022/06/29 12:38:09;;;;;;;5.07;3.77;;;27.20;83.40;;;;;;5081178;28;20044;-73
2022/06/29 12:40:35;;;;;;;4.27;3.67;;;27.20;81.30;;;;;;5092107;28;20040;-73
2022/06/29 12:43:01;;;;;;;6.97;3.60;;;27.10;80.00;;;;;;5085020;28;20044;-74
2022/06/29 12:45:27;;;;;;;4.53;3.85;;;27.20;81.30;;;;;;5078153;28;20127;-74
2022/06/29 12:47:53;;;;;;;3.83;3.50;;;27.10;78.70;;;;;;5081343;28;20147;-74
2022/06/29 12:50:20;;;;;;;4.53;3.97;;;27.10;80.30;;;;;;5068148;28;20044;-74
2022/06/29 12:52:48;;;;;;;4.30;3.85;;;27.20;81.60;;;;;;5072065;28;20111;-74
2022/06/29 12:55:15;;;;;;;4.20;3.28;;;27.30;85.70;;;;;;5069814;28;20048;-74
2022/06/29 12:57:42;;;;;;;5.72;4.05;;;27.40;89.60;;;;;;5073897;28;20047;-73
2022/06/29 13:00:10;;;;;;;5.55;3.88;;;27.60;85.10;;;;;;5106047;27;20091;-73
2022/06/29 13:02:36;;;;;;;4.93;3.65;;;27.70;85.80;;;;;;5083606;28;20025;-74
2022/06/29 13:05:03;;;;;;;4.80;3.88;;;27.90;81.30;;;;;;5066034;28;20041;-74
2022/06/29 13:07:29;;;;;;;6.10;3.85;;;28.00;78.30;;;;;;5071380;28;20044;-72
2022/06/29 13:09:58;;;;;;;5.57;3.63;;;28.00;74.70;;;;;;5067688;28;20052;-71
2022/06/29 13:12:25;;;;;;;4.68;4.18;;;28.10;75.80;;;;;;5078395;28;20486;-71